sensor_id;sensor_type;location;lat;lon;timestamp;temperature;humidity
79065;DHT22;68469;51.502;7.462;2023-04-03T00:00:22;19.40;62.50
79065;DHT22;68469;51.502;7.462;2023-04-03T00:02:48;19.40;62.50
79065;DHT22;68469;51.502;7.462;2023-04-03T00:05:13;19.40;62.50
79065;DHT22;68469;51.502;7.462;2023-04-03T00:07:39;19.40;62.50
79065;DHT22;68469;51.502;7.462;2023-04-03T00:10:06;19.40;62.50
79065;DHT22;68469;51.502;7.462;2023-04-03T00:12:31;19.40;62.60
79065;DHT22;68469;51.502;7.462;2023-04-03T00:14:57;19.40;62.60
79065;DHT22;68469;51.502;7.462;2023-04-03T00:17:22;19.40;62.60
79065;DHT22;68469;51.502;7.462;2023-04-03T00:19:48;19.40;62.60
79065;DHT22;68469;51.502;7.462;2023-04-03T00:22:14;19.40;62.70
79065;DHT22;68469;51.502;7.462;2023-04-03T00:24:39;19.40;62.60
79065;DHT22;68469;51.502;7.462;2023-04-03T00:27:05;19.40;62.60
79065;DHT22;68469;51.502;7.462;2023-04-03T00:29:30;19.40;62.60
79065;DHT22;68469;51.502;7.462;2023-04-03T00:31:56;19.40;62.60
79065;DHT22;68469;51.502;7.462;2023-04-03T00:34:22;19.40;62.50
79065;DHT22;68469;51.502;7.462;2023-04-03T00:36:47;19.40;62.50
79065;DHT22;68469;51.502;7.462;2023-04-03T00:39:13;19.40;62.50
79065;DHT22;68469;51.502;7.462;2023-04-03T00:41:39;19.40;62.50
79065;DHT22;68469;51.502;7.462;2023-04-03T00:47:13;19.40;62.50
79065;DHT22;68469;51.502;7.462;2023-04-03T00:49:40;19.40;62.50
79065;DHT22;68469;51.502;7.462;2023-04-03T00:52:11;19.30;62.40
79065;DHT22;68469;51.502;7.462;2023-04-03T00:54:38;19.40;62.50
79065;DHT22;68469;51.502;7.462;2023-04-03T00:57:06;19.30;62.50
79065;DHT22;68469;51.502;7.462;2023-04-03T00:59:36;19.30;62.50
79065;DHT22;68469;51.502;7.462;2023-04-03T01:02:04;19.30;62.50
79065;DHT22;68469;51.502;7.462;2023-04-03T01:04:34;19.30;62.50
79065;DHT22;68469;51.502;7.462;2023-04-03T01:07:16;19.30;62.50
79065;DHT22;68469;51.502;7.462;2023-04-03T01:09:43;19.30;62.40
79065;DHT22;68469;51.502;7.462;2023-04-03T01:12:18;19.30;62.40
79065;DHT22;68469;51.502;7.462;2023-04-03T01:14:46;19.30;62.50
79065;DHT22;68469;51.502;7.462;2023-04-03T01:22:55;19.40;62.50
79065;DHT22;68469;51.502;7.462;2023-04-03T01:25:22;19.30;62.40
79065;DHT22;68469;51.502;7.462;2023-04-03T01:27:47;19.30;62.40
79065;DHT22;68469;51.502;7.462;2023-04-03T01:30:16;19.30;62.50
79065;DHT22;68469;51.502;7.462;2023-04-03T01:32:42;19.30;62.40
79065;DHT22;68469;51.502;7.462;2023-04-03T01:35:09;19.30;62.50
79065;DHT22;68469;51.502;7.462;2023-04-03T01:37:35;19.30;62.50
79065;DHT22;68469;51.502;7.462;2023-04-03T01:40:00;19.30;62.50
79065;DHT22;68469;51.502;7.462;2023-04-03T01:42:26;19.30;62.60
79065;DHT22;68469;51.502;7.462;2023-04-03T01:44:51;19.30;62.40
79065;DHT22;68469;51.502;7.462;2023-04-03T01:47:17;19.30;62.40
79065;DHT22;68469;51.502;7.462;2023-04-03T01:49:42;19.30;62.50
79065;DHT22;68469;51.502;7.462;2023-04-03T01:52:08;19.30;62.40
79065;DHT22;68469;51.502;7.462;2023-04-03T01:54:34;19.30;62.40
79065;DHT22;68469;51.502;7.462;2023-04-03T01:56:59;19.30;62.50
79065;DHT22;68469;51.502;7.462;2023-04-03T01:59:25;19.30;62.50
79065;DHT22;68469;51.502;7.462;2023-04-03T02:01:51;19.30;62.60
79065;DHT22;68469;51.502;7.462;2023-04-03T02:04:16;19.30;62.60
79065;DHT22;68469;51.502;7.462;2023-04-03T02:06:42;19.30;62.50
79065;DHT22;68469;51.502;7.462;2023-04-03T02:09:08;19.30;62.60
79065;DHT22;68469;51.502;7.462;2023-04-03T02:11:33;19.30;62.50
79065;DHT22;68469;51.502;7.462;2023-04-03T02:13:59;19.30;62.50
79065;DHT22;68469;51.502;7.462;2023-04-03T02:16:25;19.20;62.50
79065;DHT22;68469;51.502;7.462;2023-04-03T02:18:50;19.20;62.40
79065;DHT22;68469;51.502;7.462;2023-04-03T02:21:16;19.20;62.40
79065;DHT22;68469;51.502;7.462;2023-04-03T02:23:41;19.20;62.40
79065;DHT22;68469;51.502;7.462;2023-04-03T02:26:10;19.20;62.40
79065;DHT22;68469;51.502;7.462;2023-04-03T02:28:37;19.20;63.00
79065;DHT22;68469;51.502;7.462;2023-04-03T02:31:03;19.20;62.30
79065;DHT22;68469;51.502;7.462;2023-04-03T02:33:30;19.30;62.30
79065;DHT22;68469;51.502;7.462;2023-04-03T02:35:56;19.30;62.40
79065;DHT22;68469;51.502;7.462;2023-04-03T02:38:22;19.20;62.30
79065;DHT22;68469;51.502;7.462;2023-04-03T02:40:49;19.20;62.40
79065;DHT22;68469;51.502;7.462;2023-04-03T02:43:14;19.20;62.40
79065;DHT22;68469;51.502;7.462;2023-04-03T02:45:40;19.20;62.30
79065;DHT22;68469;51.502;7.462;2023-04-03T02:48:06;19.20;62.40
79065;DHT22;68469;51.502;7.462;2023-04-03T02:50:31;19.20;62.50
79065;DHT22;68469;51.502;7.462;2023-04-03T02:52:57;19.20;62.40
79065;DHT22;68469;51.502;7.462;2023-04-03T02:55:23;19.20;62.40
79065;DHT22;68469;51.502;7.462;2023-04-03T02:57:48;19.20;62.50
79065;DHT22;68469;51.502;7.462;2023-04-03T03:00:14;19.20;62.50
79065;DHT22;68469;51.502;7.462;2023-04-03T03:02:40;19.20;62.60
79065;DHT22;68469;51.502;7.462;2023-04-03T03:05:07;19.20;62.40
79065;DHT22;68469;51.502;7.462;2023-04-03T03:07:33;19.20;62.50
79065;DHT22;68469;51.502;7.462;2023-04-03T03:09:59;19.20;62.60
79065;DHT22;68469;51.502;7.462;2023-04-03T03:12:24;19.20;62.50
79065;DHT22;68469;51.502;7.462;2023-04-03T03:14:50;19.20;62.50
79065;DHT22;68469;51.502;7.462;2023-04-03T03:17:16;19.20;62.60
79065;DHT22;68469;51.502;7.462;2023-04-03T03:19:42;19.20;62.70
79065;DHT22;68469;51.502;7.462;2023-04-03T03:22:08;19.20;62.60
79065;DHT22;68469;51.502;7.462;2023-04-03T03:24:33;19.20;62.60
79065;DHT22;68469;51.502;7.462;2023-04-03T03:26:59;19.20;62.60
79065;DHT22;68469;51.502;7.462;2023-04-03T03:29:25;19.20;62.50
79065;DHT22;68469;51.502;7.462;2023-04-03T03:31:50;19.20;62.50
79065;DHT22;68469;51.502;7.462;2023-04-03T03:34:16;19.20;62.50
79065;DHT22;68469;51.502;7.462;2023-04-03T03:36:41;19.20;62.50
79065;DHT22;68469;51.502;7.462;2023-04-03T03:39:07;19.20;62.40
79065;DHT22;68469;51.502;7.462;2023-04-03T03:41:33;19.20;62.40
79065;DHT22;68469;51.502;7.462;2023-04-03T03:43:58;19.20;62.50
79065;DHT22;68469;51.502;7.462;2023-04-03T03:46:24;19.20;62.40
79065;DHT22;68469;51.502;7.462;2023-04-03T03:48:49;19.20;62.50
79065;DHT22;68469;51.502;7.462;2023-04-03T03:51:15;19.20;62.40
79065;DHT22;68469;51.502;7.462;2023-04-03T03:53:41;19.20;62.40
79065;DHT22;68469;51.502;7.462;2023-04-03T03:56:06;19.20;62.50
79065;DHT22;68469;51.502;7.462;2023-04-03T03:58:32;19.20;62.60
79065;DHT22;68469;51.502;7.462;2023-04-03T04:01:03;19.20;62.40
79065;DHT22;68469;51.502;7.462;2023-04-03T04:03:28;19.20;62.50
79065;DHT22;68469;51.502;7.462;2023-04-03T04:05:54;19.20;62.40
79065;DHT22;68469;51.502;7.462;2023-04-03T04:08:20;19.10;62.40
79065;DHT22;68469;51.502;7.462;2023-04-03T04:10:45;19.20;62.50
79065;DHT22;68469;51.502;7.462;2023-04-03T04:13:11;19.10;62.40
79065;DHT22;68469;51.502;7.462;2023-04-03T04:15:37;19.10;62.50
79065;DHT22;68469;51.502;7.462;2023-04-03T04:18:02;19.10;62.50
79065;DHT22;68469;51.502;7.462;2023-04-03T04:20:28;19.10;62.40
79065;DHT22;68469;51.502;7.462;2023-04-03T04:22:54;19.10;62.30
79065;DHT22;68469;51.502;7.462;2023-04-03T04:25:20;19.10;62.30
79065;DHT22;68469;51.502;7.462;2023-04-03T04:27:45;19.10;62.30
79065;DHT22;68469;51.502;7.462;2023-04-03T04:30:11;19.10;62.70
79065;DHT22;68469;51.502;7.462;2023-04-03T04:32:37;19.10;62.30
79065;DHT22;68469;51.502;7.462;2023-04-03T04:35:03;19.10;62.40
79065;DHT22;68469;51.502;7.462;2023-04-03T04:37:29;19.10;62.40
79065;DHT22;68469;51.502;7.462;2023-04-03T04:39:55;19.10;62.40
79065;DHT22;68469;51.502;7.462;2023-04-03T04:42:21;19.10;62.50
79065;DHT22;68469;51.502;7.462;2023-04-03T04:44:46;19.10;62.30
79065;DHT22;68469;51.502;7.462;2023-04-03T04:47:12;19.10;62.30
79065;DHT22;68469;51.502;7.462;2023-04-03T04:49:38;19.10;62.50
79065;DHT22;68469;51.502;7.462;2023-04-03T04:52:03;19.10;62.40
79065;DHT22;68469;51.502;7.462;2023-04-03T04:54:29;19.10;62.50
79065;DHT22;68469;51.502;7.462;2023-04-03T04:56:55;19.10;62.40
79065;DHT22;68469;51.502;7.462;2023-04-03T04:59:20;19.10;62.40
79065;DHT22;68469;51.502;7.462;2023-04-03T05:01:46;19.10;62.30
79065;DHT22;68469;51.502;7.462;2023-04-03T05:04:11;19.10;62.30
79065;DHT22;68469;51.502;7.462;2023-04-03T05:06:38;19.10;62.30
79065;DHT22;68469;51.502;7.462;2023-04-03T05:09:04;19.10;62.50
79065;DHT22;68469;51.502;7.462;2023-04-03T05:11:30;18.70;52.40
79065;DHT22;68469;51.502;7.462;2023-04-03T05:13:55;17.90;46.80
79065;DHT22;68469;51.502;7.462;2023-04-03T05:16:21;17.00;45.40
79065;DHT22;68469;51.502;7.462;2023-04-03T05:18:47;16.50;44.60
79065;DHT22;68469;51.502;7.462;2023-04-03T05:21:12;16.20;45.10
79065;DHT22;68469;51.502;7.462;2023-04-03T05:23:38;16.50;48.20
79065;DHT22;68469;51.502;7.462;2023-04-03T05:26:04;16.60;49.30
79065;DHT22;68469;51.502;7.462;2023-04-03T05:28:29;16.80;50.00
79065;DHT22;68469;51.502;7.462;2023-04-03T05:30:58;16.80;50.10
79065;DHT22;68469;51.502;7.462;2023-04-03T05:33:24;16.90;50.60
79065;DHT22;68469;51.502;7.462;2023-04-03T05:35:52;16.90;50.90
79065;DHT22;68469;51.502;7.462;2023-04-03T05:38:17;16.90;51.30
79065;DHT22;68469;51.502;7.462;2023-04-03T05:40:43;16.90;51.80
79065;DHT22;68469;51.502;7.462;2023-04-03T05:43:08;17.00;51.80
79065;DHT22;68469;51.502;7.462;2023-04-03T05:45:34;17.00;52.10
79065;DHT22;68469;51.502;7.462;2023-04-03T05:48:01;17.00;52.10
79065;DHT22;68469;51.502;7.462;2023-04-03T05:50:27;17.00;52.10
79065;DHT22;68469;51.502;7.462;2023-04-03T05:52:56;17.00;52.20
79065;DHT22;68469;51.502;7.462;2023-04-03T05:55:22;17.00;52.50
79065;DHT22;68469;51.502;7.462;2023-04-03T05:57:48;17.00;52.40
79065;DHT22;68469;51.502;7.462;2023-04-03T06:00:14;17.00;52.80
79065;DHT22;68469;51.502;7.462;2023-04-03T06:02:41;17.00;52.70
79065;DHT22;68469;51.502;7.462;2023-04-03T06:05:08;17.00;52.90
79065;DHT22;68469;51.502;7.462;2023-04-03T06:07:34;17.00;52.60
79065;DHT22;68469;51.502;7.462;2023-04-03T06:10:01;17.00;52.50
79065;DHT22;68469;51.502;7.462;2023-04-03T06:12:27;17.00;52.70
79065;DHT22;68469;51.502;7.462;2023-04-03T06:14:55;17.00;52.10
79065;DHT22;68469;51.502;7.462;2023-04-03T06:17:21;17.00;52.40
79065;DHT22;68469;51.502;7.462;2023-04-03T06:19:47;17.00;52.40
79065;DHT22;68469;51.502;7.462;2023-04-03T06:22:13;17.00;53.00
79065;DHT22;68469;51.502;7.462;2023-04-03T06:24:39;17.00;52.40
79065;DHT22;68469;51.502;7.462;2023-04-03T06:27:05;17.00;52.10
79065;DHT22;68469;51.502;7.462;2023-04-03T06:29:31;17.00;52.60
79065;DHT22;68469;51.502;7.462;2023-04-03T06:31:56;17.00;52.00
79065;DHT22;68469;51.502;7.462;2023-04-03T06:34:22;16.90;51.80
79065;DHT22;68469;51.502;7.462;2023-04-03T06:36:48;16.90;52.20
79065;DHT22;68469;51.502;7.462;2023-04-03T06:39:19;16.90;52.20
79065;DHT22;68469;51.502;7.462;2023-04-03T06:41:46;16.90;51.50
79065;DHT22;68469;51.502;7.462;2023-04-03T06:44:12;16.90;51.70
79065;DHT22;68469;51.502;7.462;2023-04-03T06:46:40;16.90;51.40
79065;DHT22;68469;51.502;7.462;2023-04-03T06:49:06;16.90;51.20
79065;DHT22;68469;51.502;7.462;2023-04-03T06:51:35;16.90;51.70
79065;DHT22;68469;51.502;7.462;2023-04-03T06:54:02;16.90;51.30
79065;DHT22;68469;51.502;7.462;2023-04-03T06:56:28;16.90;50.60
79065;DHT22;68469;51.502;7.462;2023-04-03T06:58:55;16.90;50.90
79065;DHT22;68469;51.502;7.462;2023-04-03T07:01:24;16.90;51.40
79065;DHT22;68469;51.502;7.462;2023-04-03T07:03:51;16.90;51.00
79065;DHT22;68469;51.502;7.462;2023-04-03T07:06:18;16.90;50.60
79065;DHT22;68469;51.502;7.462;2023-04-03T07:08:44;16.90;51.00
79065;DHT22;68469;51.502;7.462;2023-04-03T07:11:11;16.90;51.20
79065;DHT22;68469;51.502;7.462;2023-04-03T07:13:38;17.10;53.10
79065;DHT22;68469;51.502;7.462;2023-04-03T07:16:04;17.30;53.80
79065;DHT22;68469;51.502;7.462;2023-04-03T07:18:32;17.50;54.00
79065;DHT22;68469;51.502;7.462;2023-04-03T07:20:57;17.60;54.50
79065;DHT22;68469;51.502;7.462;2023-04-03T07:23:23;17.80;57.20
79065;DHT22;68469;51.502;7.462;2023-04-03T07:25:50;17.90;57.10
79065;DHT22;68469;51.502;7.462;2023-04-03T07:28:18;18.00;58.00
79065;DHT22;68469;51.502;7.462;2023-04-03T07:31:13;18.10;58.40
79065;DHT22;68469;51.502;7.462;2023-04-03T07:33:40;18.20;57.90
79065;DHT22;68469;51.502;7.462;2023-04-03T07:36:06;18.30;59.30
79065;DHT22;68469;51.502;7.462;2023-04-03T07:38:33;18.30;58.10
79065;DHT22;68469;51.502;7.462;2023-04-03T07:40:58;18.40;57.70
79065;DHT22;68469;51.502;7.462;2023-04-03T07:43:24;18.40;57.20
79065;DHT22;68469;51.502;7.462;2023-04-03T07:45:51;18.40;56.90
79065;DHT22;68469;51.502;7.462;2023-04-03T07:48:19;18.40;56.30
79065;DHT22;68469;51.502;7.462;2023-04-03T07:50:45;18.40;56.30
79065;DHT22;68469;51.502;7.462;2023-04-03T07:53:10;18.50;56.40
79065;DHT22;68469;51.502;7.462;2023-04-03T07:55:37;18.50;56.50
79065;DHT22;68469;51.502;7.462;2023-04-03T07:58:13;18.50;56.10
79065;DHT22;68469;51.502;7.462;2023-04-03T08:00:40;18.50;56.20
79065;DHT22;68469;51.502;7.462;2023-04-03T08:03:07;18.50;56.00
79065;DHT22;68469;51.502;7.462;2023-04-03T08:05:38;18.60;56.10
79065;DHT22;68469;51.502;7.462;2023-04-03T08:08:05;18.60;55.80
79065;DHT22;68469;51.502;7.462;2023-04-03T08:10:32;18.60;55.50
79065;DHT22;68469;51.502;7.462;2023-04-03T08:12:58;18.60;55.70
79065;DHT22;68469;51.502;7.462;2023-04-03T08:15:23;18.60;55.90
79065;DHT22;68469;51.502;7.462;2023-04-03T08:17:50;18.70;56.50
79065;DHT22;68469;51.502;7.462;2023-04-03T08:20:16;18.80;56.90
79065;DHT22;68469;51.502;7.462;2023-04-03T08:22:41;18.80;57.20
79065;DHT22;68469;51.502;7.462;2023-04-03T08:25:07;18.60;52.30
79065;DHT22;68469;51.502;7.462;2023-04-03T08:27:33;18.50;53.50
79065;DHT22;68469;51.502;7.462;2023-04-03T08:29:59;18.50;48.60
79065;DHT22;68469;51.502;7.462;2023-04-03T08:32:25;17.20;43.30
79065;DHT22;68469;51.502;7.462;2023-04-03T08:34:51;17.50;51.10
79065;DHT22;68469;51.502;7.462;2023-04-03T08:37:17;17.90;51.80
79065;DHT22;68469;51.502;7.462;2023-04-03T08:39:43;18.10;53.50
79065;DHT22;68469;51.502;7.462;2023-04-03T08:42:36;18.30;53.90
79065;DHT22;68469;51.502;7.462;2023-04-03T08:48:05;18.50;55.00
79065;DHT22;68469;51.502;7.462;2023-04-03T08:50:43;18.60;55.10
79065;DHT22;68469;51.502;7.462;2023-04-03T08:53:20;18.70;55.30
79065;DHT22;68469;51.502;7.462;2023-04-03T08:55:48;18.70;55.20
79065;DHT22;68469;51.502;7.462;2023-04-03T08:58:29;18.80;55.40
79065;DHT22;68469;51.502;7.462;2023-04-03T09:01:05;18.90;55.60
79065;DHT22;68469;51.502;7.462;2023-04-03T09:03:36;18.90;55.60
79065;DHT22;68469;51.502;7.462;2023-04-03T09:06:15;19.00;55.70
79065;DHT22;68469;51.502;7.462;2023-04-03T09:09:02;19.10;55.80
79065;DHT22;68469;51.502;7.462;2023-04-03T09:11:54;19.20;55.90
79065;DHT22;68469;51.502;7.462;2023-04-03T09:20:30;19.30;55.90
79065;DHT22;68469;51.502;7.462;2023-04-03T09:22:58;19.40;56.00
79065;DHT22;68469;51.502;7.462;2023-04-03T09:25:32;19.50;56.20
79065;DHT22;68469;51.502;7.462;2023-04-03T09:28:00;19.50;56.10
79065;DHT22;68469;51.502;7.462;2023-04-03T09:30:27;19.60;56.00
79065;DHT22;68469;51.502;7.462;2023-04-03T09:32:56;19.60;56.60
79065;DHT22;68469;51.502;7.462;2023-04-03T09:35:28;19.60;56.00
79065;DHT22;68469;51.502;7.462;2023-04-03T09:38:02;19.70;56.10
79065;DHT22;68469;51.502;7.462;2023-04-03T09:40:51;19.70;56.20
79065;DHT22;68469;51.502;7.462;2023-04-03T09:43:31;19.70;56.10
79065;DHT22;68469;51.502;7.462;2023-04-03T09:46:29;19.80;56.00
79065;DHT22;68469;51.502;7.462;2023-04-03T09:48:57;19.80;56.20
79065;DHT22;68469;51.502;7.462;2023-04-03T09:51:28;19.90;56.30
79065;DHT22;68469;51.502;7.462;2023-04-03T09:53:54;19.90;56.20
79065;DHT22;68469;51.502;7.462;2023-04-03T09:56:23;20.00;56.30
79065;DHT22;68469;51.502;7.462;2023-04-03T10:01:34;20.00;56.90
79065;DHT22;68469;51.502;7.462;2023-04-03T10:04:13;20.10;56.10
79065;DHT22;68469;51.502;7.462;2023-04-03T10:06:42;20.10;56.10
79065;DHT22;68469;51.502;7.462;2023-04-03T10:12:08;20.20;56.30
79065;DHT22;68469;51.502;7.462;2023-04-03T10:14:57;20.20;56.40
79065;DHT22;68469;51.502;7.462;2023-04-03T10:17:49;20.30;56.50
79065;DHT22;68469;51.502;7.462;2023-04-03T10:20:59;20.30;56.60
79065;DHT22;68469;51.502;7.462;2023-04-03T10:23:22;20.30;56.70
79065;DHT22;68469;51.502;7.462;2023-04-03T10:28:35;20.40;57.00
79065;DHT22;68469;51.502;7.462;2023-04-03T10:34:06;20.40;57.00
79065;DHT22;68469;51.502;7.462;2023-04-03T10:45:55;21.10;55.40
79065;DHT22;68469;51.502;7.462;2023-04-03T10:53:54;21.10;56.10
79065;DHT22;68469;51.502;7.462;2023-04-03T11:02:25;20.80;50.80
79065;DHT22;68469;51.502;7.462;2023-04-03T11:04:56;20.10;46.80
79065;DHT22;68469;51.502;7.462;2023-04-03T11:07:28;20.20;50.70
79065;DHT22;68469;51.502;7.462;2023-04-03T11:10:13;20.30;52.90
79065;DHT22;68469;51.502;7.462;2023-04-03T11:12:46;20.40;54.20
79065;DHT22;68469;51.502;7.462;2023-04-03T11:15:16;20.40;54.70
79065;DHT22;68469;51.502;7.462;2023-04-03T11:17:55;20.40;55.20
79065;DHT22;68469;51.502;7.462;2023-04-03T11:20:28;20.50;55.40
79065;DHT22;68469;51.502;7.462;2023-04-03T11:23:21;20.50;55.50
79065;DHT22;68469;51.502;7.462;2023-04-03T11:25:53;20.50;55.40
79065;DHT22;68469;51.502;7.462;2023-04-03T11:28:19;20.50;55.40
79065;DHT22;68469;51.502;7.462;2023-04-03T11:36:28;20.30;56.60
79065;DHT22;68469;51.502;7.462;2023-04-03T11:38:58;20.50;56.30
79065;DHT22;68469;51.502;7.462;2023-04-03T11:41:27;20.60;56.10
79065;DHT22;68469;51.502;7.462;2023-04-03T11:44:06;20.60;55.90
79065;DHT22;68469;51.502;7.462;2023-04-03T11:46:53;20.60;56.30
79065;DHT22;68469;51.502;7.462;2023-04-03T11:58:12;20.40;56.20
79065;DHT22;68469;51.502;7.462;2023-04-03T12:16:28;20.40;56.20
79065;DHT22;68469;51.502;7.462;2023-04-03T12:29:22;20.20;56.40
79065;DHT22;68469;51.502;7.462;2023-04-03T12:38:10;20.10;56.90
79065;DHT22;68469;51.502;7.462;2023-04-03T12:43:27;20.10;56.90
79065;DHT22;68469;51.502;7.462;2023-04-03T12:48:51;20.00;57.30
79065;DHT22;68469;51.502;7.462;2023-04-03T12:51:41;20.00;57.80
79065;DHT22;68469;51.502;7.462;2023-04-03T12:56:43;20.00;57.40
79065;DHT22;68469;51.502;7.462;2023-04-03T12:59:26;20.00;57.70
79065;DHT22;68469;51.502;7.462;2023-04-03T13:01:56;20.00;58.10
79065;DHT22;68469;51.502;7.462;2023-04-03T13:04:22;20.00;57.60
79065;DHT22;68469;51.502;7.462;2023-04-03T13:06:49;20.00;57.80
79065;DHT22;68469;51.502;7.462;2023-04-03T13:09:24;19.90;57.70
79065;DHT22;68469;51.502;7.462;2023-04-03T13:12:01;19.90;57.50
79065;DHT22;68469;51.502;7.462;2023-04-03T13:14:28;19.90;57.80
79065;DHT22;68469;51.502;7.462;2023-04-03T13:17:10;19.90;58.00
79065;DHT22;68469;51.502;7.462;2023-04-03T13:19:37;19.90;57.70
79065;DHT22;68469;51.502;7.462;2023-04-03T13:22:11;19.90;57.30
79065;DHT22;68469;51.502;7.462;2023-04-03T13:24:40;19.80;57.30
79065;DHT22;68469;51.502;7.462;2023-04-03T13:27:06;19.80;57.50
79065;DHT22;68469;51.502;7.462;2023-04-03T13:29:35;19.80;57.60
79065;DHT22;68469;51.502;7.462;2023-04-03T13:32:03;19.80;57.70
79065;DHT22;68469;51.502;7.462;2023-04-03T13:34:36;19.80;57.60
79065;DHT22;68469;51.502;7.462;2023-04-03T13:37:03;19.80;57.80
79065;DHT22;68469;51.502;7.462;2023-04-03T13:39:39;19.80;57.80
79065;DHT22;68469;51.502;7.462;2023-04-03T13:42:21;19.80;57.70
79065;DHT22;68469;51.502;7.462;2023-04-03T13:44:48;19.70;57.70
79065;DHT22;68469;51.502;7.462;2023-04-03T13:47:16;19.70;57.80
79065;DHT22;68469;51.502;7.462;2023-04-03T13:50:03;19.70;57.70
79065;DHT22;68469;51.502;7.462;2023-04-03T13:52:33;19.70;57.70
79065;DHT22;68469;51.502;7.462;2023-04-03T13:55:25;19.70;57.70
79065;DHT22;68469;51.502;7.462;2023-04-03T13:58:30;19.70;57.70
79065;DHT22;68469;51.502;7.462;2023-04-03T14:04:09;19.70;57.80
79065;DHT22;68469;51.502;7.462;2023-04-03T14:06:35;19.70;57.60
79065;DHT22;68469;51.502;7.462;2023-04-03T14:09:01;19.70;57.70
79065;DHT22;68469;51.502;7.462;2023-04-03T14:11:29;19.60;57.70
79065;DHT22;68469;51.502;7.462;2023-04-03T14:13:58;19.60;57.90
79065;DHT22;68469;51.502;7.462;2023-04-03T14:16:29;19.60;57.60
79065;DHT22;68469;51.502;7.462;2023-04-03T14:18:55;19.60;57.80
79065;DHT22;68469;51.502;7.462;2023-04-03T14:21:22;19.60;57.70
79065;DHT22;68469;51.502;7.462;2023-04-03T14:23:48;19.60;57.60
79065;DHT22;68469;51.502;7.462;2023-04-03T14:26:17;19.60;57.70
79065;DHT22;68469;51.502;7.462;2023-04-03T14:28:48;19.60;57.70
79065;DHT22;68469;51.502;7.462;2023-04-03T14:31:15;19.60;57.60
79065;DHT22;68469;51.502;7.462;2023-04-03T14:33:41;19.60;57.70
79065;DHT22;68469;51.502;7.462;2023-04-03T14:36:18;19.60;57.80
79065;DHT22;68469;51.502;7.462;2023-04-03T14:38:45;19.60;57.80
79065;DHT22;68469;51.502;7.462;2023-04-03T14:41:13;19.50;57.60
79065;DHT22;68469;51.502;7.462;2023-04-03T14:43:40;19.60;57.60
79065;DHT22;68469;51.502;7.462;2023-04-03T14:46:32;19.60;57.60
79065;DHT22;68469;51.502;7.462;2023-04-03T14:48:56;19.60;57.70
79065;DHT22;68469;51.502;7.462;2023-04-03T14:51:21;19.50;57.80
79065;DHT22;68469;51.502;7.462;2023-04-03T14:53:48;19.60;57.80
79065;DHT22;68469;51.502;7.462;2023-04-03T14:56:34;19.60;57.80
79065;DHT22;68469;51.502;7.462;2023-04-03T14:59:00;19.60;57.70
79065;DHT22;68469;51.502;7.462;2023-04-03T15:01:27;19.60;57.70
79065;DHT22;68469;51.502;7.462;2023-04-03T15:03:53;19.60;57.80
79065;DHT22;68469;51.502;7.462;2023-04-03T15:06:20;19.60;57.70
79065;DHT22;68469;51.502;7.462;2023-04-03T15:08:47;19.60;57.50
79065;DHT22;68469;51.502;7.462;2023-04-03T15:11:13;19.60;57.90
79065;DHT22;68469;51.502;7.462;2023-04-03T15:13:40;19.60;57.90
79065;DHT22;68469;51.502;7.462;2023-04-03T15:16:15;19.60;57.90
79065;DHT22;68469;51.502;7.462;2023-04-03T15:18:41;19.60;58.00
79065;DHT22;68469;51.502;7.462;2023-04-03T15:21:06;19.60;58.30
79065;DHT22;68469;51.502;7.462;2023-04-03T15:23:32;19.60;58.60
79065;DHT22;68469;51.502;7.462;2023-04-03T15:25:58;19.50;58.70
79065;DHT22;68469;51.502;7.462;2023-04-03T15:28:35;19.50;58.70
79065;DHT22;68469;51.502;7.462;2023-04-03T15:31:03;19.60;58.90
79065;DHT22;68469;51.502;7.462;2023-04-03T15:33:29;19.60;59.00
79065;DHT22;68469;51.502;7.462;2023-04-03T15:35:55;19.60;58.60
79065;DHT22;68469;51.502;7.462;2023-04-03T15:38:21;19.60;58.50
79065;DHT22;68469;51.502;7.462;2023-04-03T15:40:47;19.60;58.60
79065;DHT22;68469;51.502;7.462;2023-04-03T15:43:13;19.60;58.40
79065;DHT22;68469;51.502;7.462;2023-04-03T15:45:40;19.60;57.90
79065;DHT22;68469;51.502;7.462;2023-04-03T15:48:06;19.60;58.00
79065;DHT22;68469;51.502;7.462;2023-04-03T15:50:33;19.60;58.00
79065;DHT22;68469;51.502;7.462;2023-04-03T15:52:59;19.60;58.50
79065;DHT22;68469;51.502;7.462;2023-04-03T15:55:28;19.50;57.80
79065;DHT22;68469;51.502;7.462;2023-04-03T15:57:54;19.50;57.70
79065;DHT22;68469;51.502;7.462;2023-04-03T16:00:21;19.50;57.30
79065;DHT22;68469;51.502;7.462;2023-04-03T16:02:49;19.50;57.40
79065;DHT22;68469;51.502;7.462;2023-04-03T16:05:17;19.50;58.40
79065;DHT22;68469;51.502;7.462;2023-04-03T16:07:44;19.50;57.60
79065;DHT22;68469;51.502;7.462;2023-04-03T16:10:13;19.40;57.20
79065;DHT22;68469;51.502;7.462;2023-04-03T16:12:39;19.40;56.40
79065;DHT22;68469;51.502;7.462;2023-04-03T16:15:06;19.30;56.50
79065;DHT22;68469;51.502;7.462;2023-04-03T16:17:33;19.20;56.50
79065;DHT22;68469;51.502;7.462;2023-04-03T16:20:00;19.20;56.40
79065;DHT22;68469;51.502;7.462;2023-04-03T16:22:27;19.20;56.40
79065;DHT22;68469;51.502;7.462;2023-04-03T16:24:54;19.10;56.20
79065;DHT22;68469;51.502;7.462;2023-04-03T16:27:20;19.10;56.20
79065;DHT22;68469;51.502;7.462;2023-04-03T16:29:46;19.10;56.60
79065;DHT22;68469;51.502;7.462;2023-04-03T16:32:12;19.10;56.90
79065;DHT22;68469;51.502;7.462;2023-04-03T16:34:38;19.00;56.70
79065;DHT22;68469;51.502;7.462;2023-04-03T16:37:05;19.00;56.50
79065;DHT22;68469;51.502;7.462;2023-04-03T16:39:34;19.00;56.60
79065;DHT22;68469;51.502;7.462;2023-04-03T16:42:00;19.00;56.00
79065;DHT22;68469;51.502;7.462;2023-04-03T16:44:25;19.00;55.90
79065;DHT22;68469;51.502;7.462;2023-04-03T16:46:51;19.00;55.60
79065;DHT22;68469;51.502;7.462;2023-04-03T16:49:17;18.90;56.00
79065;DHT22;68469;51.502;7.462;2023-04-03T16:51:42;19.00;56.10
79065;DHT22;68469;51.502;7.462;2023-04-03T16:54:08;19.00;56.30
79065;DHT22;68469;51.502;7.462;2023-04-03T16:56:36;19.00;56.70
79065;DHT22;68469;51.502;7.462;2023-04-03T16:59:01;19.00;57.10
79065;DHT22;68469;51.502;7.462;2023-04-03T17:01:27;19.00;53.90
79065;DHT22;68469;51.502;7.462;2023-04-03T17:03:52;18.90;52.40
79065;DHT22;68469;51.502;7.462;2023-04-03T17:06:20;18.90;52.00
79065;DHT22;68469;51.502;7.462;2023-04-03T17:08:47;18.70;51.30
79065;DHT22;68469;51.502;7.462;2023-04-03T17:11:14;18.70;50.80
79065;DHT22;68469;51.502;7.462;2023-04-03T17:13:40;18.60;51.60
79065;DHT22;68469;51.502;7.462;2023-04-03T17:16:09;18.60;51.50
79065;DHT22;68469;51.502;7.462;2023-04-03T17:18:36;18.70;51.60
79065;DHT22;68469;51.502;7.462;2023-04-03T17:21:02;18.60;49.20
79065;DHT22;68469;51.502;7.462;2023-04-03T17:23:29;18.50;48.00
79065;DHT22;68469;51.502;7.462;2023-04-03T17:25:55;18.40;48.70